createdAt,value
2022-11-29T00:01:34.846Z,81.02
2022-11-29T00:04:02.120Z,82.04
2022-11-29T00:06:32.237Z,83.86
2022-11-29T00:09:04.474Z,82.75
2022-11-29T00:11:53.013Z,79.68
2022-11-29T00:14:20.549Z,83.79
2022-11-29T00:17:02.227Z,84.04
2022-11-29T00:19:29.770Z,83.49
2022-11-29T00:21:56.841Z,84.84
2022-11-29T00:24:23.814Z,88.81
2022-11-29T00:26:50.671Z,89.99
2022-11-29T00:29:17.434Z,88.63
2022-11-29T00:31:44.878Z,87.83
2022-11-29T00:34:12.170Z,88.48
2022-11-29T00:36:39.948Z,86.32
2022-11-29T00:39:07.168Z,86.13
2022-11-29T00:41:34.259Z,87.71
2022-11-29T00:44:01.198Z,88.58
2022-11-29T00:46:28.140Z,88.22
2022-11-29T00:48:55.065Z,87.69
2022-11-29T00:51:21.956Z,88.82
2022-11-29T00:53:49.004Z,87.33
2022-11-29T00:56:16.397Z,85.04
2022-11-29T00:58:44.311Z,83.46
2022-11-29T01:01:11.903Z,84.47
2022-11-29T01:03:38.959Z,86.37
2022-11-29T01:06:08.347Z,89.65
2022-11-29T01:08:35.517Z,88.29
2022-11-29T01:11:09.551Z,87.92
2022-11-29T01:13:36.712Z,88.97
2022-11-29T01:16:04.919Z,89.63
2022-11-29T01:18:32.335Z,87.20
2022-11-29T01:21:07.063Z,86.38
2022-11-29T01:23:34.846Z,86.09
2022-11-29T01:26:07.670Z,84.69
2022-11-29T01:28:35.123Z,86.03
2022-11-29T01:31:13.881Z,86.80
2022-11-29T01:33:40.958Z,86.75
2022-11-29T01:36:08.584Z,88.11
2022-11-29T01:38:36.428Z,88.39
2022-11-29T01:41:19.707Z,90.06
2022-11-29T01:44:14.593Z,93.44
2022-11-29T01:46:43.926Z,90.87
2022-11-29T01:49:16.121Z,92.24
2022-11-29T01:51:47.002Z,89.48
2022-11-29T01:54:14.653Z,91.72
2022-11-29T01:56:42.139Z,89.80
2022-11-29T01:59:13.734Z,90.94
2022-11-29T02:01:40.792Z,88.92
2022-11-29T02:04:08.007Z,88.58
2022-11-29T02:06:35.846Z,90.86
2022-11-29T02:09:03.535Z,89.42
2022-11-29T02:11:46.601Z,87.19
2022-11-29T02:14:56.184Z,84.84
2022-11-29T02:17:52.202Z,86.87
2022-11-29T02:20:21.605Z,87.31
2022-11-29T02:23:06.609Z,87.59
2022-11-29T02:25:51.848Z,88.71
2022-11-29T02:29:03.041Z,86.22
2022-11-29T02:31:38.943Z,88.55
2022-11-29T02:34:18.148Z,93.43
2022-11-29T02:36:51.730Z,89.51
2022-11-29T02:39:44.304Z,87.95
2022-11-29T02:42:56.610Z,87.56
2022-11-29T02:45:49.534Z,88.79
2022-11-29T02:48:34.082Z,90.12
2022-11-29T02:51:06.654Z,87.23
2022-11-29T02:53:56.380Z,86.03
2022-11-29T02:56:41.039Z,85.88
2022-11-29T02:59:17.008Z,87.41
2022-11-29T03:01:53.670Z,89.35
2022-11-29T03:05:04.226Z,90.76
2022-11-29T03:07:34.295Z,88.00
2022-11-29T03:10:08.776Z,90.26
2022-11-29T03:12:42.580Z,92.66
2022-11-29T03:15:48.636Z,91.30
2022-11-29T03:18:25.992Z,91.87
2022-11-29T03:20:52.693Z,90.74
2022-11-29T03:23:32.518Z,88.21
2022-11-29T03:26:07.995Z,88.15
2022-11-29T03:28:42.039Z,89.35
2022-11-29T03:31:21.593Z,90.58
2022-11-29T03:34:01.374Z,88.08
2022-11-29T03:36:30.269Z,87.98
2022-11-29T03:39:01.170Z,86.80
2022-11-29T03:41:33.563Z,88.64
2022-11-29T03:44:19.395Z,89.01
2022-11-29T03:47:07.211Z,86.02
2022-11-29T03:49:48.257Z,86.31
2022-11-29T03:52:23.967Z,87.11
2022-11-29T03:55:09.086Z,86.74
2022-11-29T03:57:59.591Z,85.76
2022-11-29T04:00:30.130Z,84.80
2022-11-29T04:03:21.356Z,86.26
2022-11-29T04:06:20.936Z,83.36
2022-11-29T04:08:56.363Z,82.15
2022-11-29T04:12:04.937Z,80.42
2022-11-29T04:14:34.990Z,82.48
2022-11-29T04:17:49.328Z,85.37
2022-11-29T04:20:48.594Z,82.94
2022-11-29T04:23:43.680Z,85.38
2022-11-29T04:26:44.576Z,83.39
2022-11-29T04:29:22.555Z,85.32
2022-11-29T04:32:07.613Z,80.54
2022-11-29T04:34:56.173Z,83.96
2022-11-29T04:37:34.987Z,83.25
2022-11-29T04:40:22.497Z,80.15
2022-11-29T04:43:28.129Z,77.46
2022-11-29T04:46:05.783Z,77.41
2022-11-29T04:48:38.445Z,79.01
2022-11-29T04:51:34.626Z,78.64
2022-11-29T04:54:40.362Z,81.45
2022-11-29T04:57:33.352Z,85.14
2022-11-29T05:00:16.423Z,83.85
2022-11-29T05:02:55.050Z,82.82
2022-11-29T05:05:43.758Z,82.83
2022-11-29T05:08:24.418Z,85.06
2022-11-29T05:10:51.215Z,82.86
2022-11-29T05:13:24.125Z,84.58
2022-11-29T05:16:07.936Z,82.17
2022-11-29T05:19:02.457Z,82.52
2022-11-29T05:21:34.915Z,81.68
2022-11-29T05:24:17.345Z,81.47
2022-11-29T05:27:11.004Z,79.94
2022-11-29T05:29:52.154Z,78.66
2022-11-29T05:32:57.967Z,81.37
2022-11-29T05:35:46.561Z,80.87
2022-11-29T05:38:39.493Z,82.60
2022-11-29T05:41:44.312Z,83.14
2022-11-29T05:44:17.734Z,84.40
2022-11-29T05:46:59.503Z,82.86
2022-11-29T05:49:37.025Z,81.22
2022-11-29T05:52:17.095Z,80.06
2022-11-29T05:55:02.243Z,82.03
2022-11-29T05:57:55.873Z,84.04
2022-11-29T06:00:23.186Z,83.38
2022-11-29T06:03:31.571Z,85.35
2022-11-29T06:06:08.326Z,83.73
2022-11-29T06:09:13.456Z,84.59
2022-11-29T06:11:47.838Z,87.93
2022-11-29T06:14:21.646Z,83.46
2022-11-29T06:17:10.103Z,80.47
2022-11-29T06:19:53.340Z,81.90
2022-11-29T06:22:58.578Z,80.92
2022-11-29T06:25:39.507Z,86.00
2022-11-29T06:28:09.271Z,85.22
2022-11-29T06:30:55.807Z,84.07
2022-11-29T06:33:25.727Z,84.02
2022-11-29T06:36:10.453Z,88.58
2022-11-29T06:38:37.602Z,88.63
2022-11-29T06:41:04.798Z,86.60
2022-11-29T06:43:32.103Z,85.19
2022-11-29T06:46:16.379Z,86.05
2022-11-29T06:49:01.891Z,85.39
2022-11-29T06:51:42.188Z,84.07
2022-11-29T06:54:16.893Z,84.77
2022-11-29T06:56:51.846Z,81.37
2022-11-29T06:59:57.543Z,86.73
2022-11-29T07:02:44.820Z,89.18
2022-11-29T07:05:17.297Z,88.16
2022-11-29T07:07:44.526Z,93.45
2022-11-29T07:10:17.420Z,91.38
2022-11-29T07:12:48.898Z,89.36
2022-11-29T07:15:21.368Z,90.74
2022-11-29T07:18:29.023Z,89.47
2022-11-29T07:21:31.274Z,93.14
2022-11-29T07:24:04.200Z,89.57
2022-11-29T07:26:41.126Z,88.30
2022-11-29T07:29:35.924Z,88.75
2022-11-29T07:32:23.799Z,87.51
2022-11-29T07:34:56.615Z,86.49
2022-11-29T07:37:39.582Z,89.53
2022-11-29T07:40:37.816Z,90.86
2022-11-29T07:43:23.473Z,92.05
2022-11-29T07:45:50.571Z,87.88
2022-11-29T07:48:18.096Z,88.32
2022-11-29T07:50:45.543Z,91.07
2022-11-29T07:53:17.916Z,87.69
2022-11-29T07:55:45.195Z,91.39
2022-11-29T07:58:13.500Z,92.36
2022-11-29T08:00:42.427Z,91.52
2022-11-29T08:03:10.112Z,90.21
2022-11-29T08:05:38.676Z,90.04
2022-11-29T08:08:06.282Z,88.37
2022-11-29T08:10:33.203Z,83.36
2022-11-29T08:13:00.050Z,88.29
2022-11-29T08:15:27.632Z,90.51
2022-11-29T08:17:54.520Z,92.17
2022-11-29T08:20:21.338Z,91.53
2022-11-29T08:23:00.728Z,94.96
2022-11-29T08:25:28.176Z,91.74
2022-11-29T08:27:56.835Z,93.53
2022-11-29T08:30:44.890Z,88.31
2022-11-29T08:33:24.609Z,94.08
2022-11-29T08:35:51.461Z,92.12
2022-11-29T08:38:18.105Z,88.39
2022-11-29T08:40:44.997Z,89.16
2022-11-29T08:43:11.893Z,84.75
2022-11-29T08:45:38.799Z,88.08
2022-11-29T08:48:06.106Z,85.97
2022-11-29T08:50:33.353Z,85.88
2022-11-29T08:53:18.609Z,87.97
2022-11-29T08:55:46.820Z,91.75
2022-11-29T08:58:15.342Z,89.79
2022-11-29T09:00:46.532Z,88.33
2022-11-29T09:03:31.858Z,89.93
2022-11-29T09:05:59.830Z,86.65
2022-11-29T09:08:26.763Z,87.91
2022-11-29T09:10:53.695Z,88.44
2022-11-29T09:13:20.641Z,87.44
2022-11-29T09:15:47.539Z,85.31
2022-11-29T09:18:14.419Z,87.59
2022-11-29T09:20:44.713Z,87.70
2022-11-29T09:23:13.219Z,87.19
2022-11-29T09:25:40.194Z,84.30
2022-11-29T09:28:07.617Z,82.86
2022-11-29T09:30:36.709Z,83.76
2022-11-29T09:33:05.078Z,81.30
2022-11-29T09:35:32.295Z,85.35
2022-11-29T09:37:59.269Z,86.11
2022-11-29T09:40:38.296Z,85.57
2022-11-29T09:43:21.421Z,86.73
2022-11-29T09:45:51.983Z,82.62
2022-11-29T09:48:59.509Z,87.77
2022-11-29T09:51:54.017Z,82.71
2022-11-29T09:55:02.223Z,85.11
2022-11-29T09:57:30.075Z,81.75
2022-11-29T10:00:00.718Z,83.66
2022-11-29T10:02:33.752Z,83.82
2022-11-29T10:05:12.487Z,84.64
2022-11-29T10:08:02.513Z,85.43
2022-11-29T10:10:41.736Z,88.94
2022-11-29T10:13:23.441Z,87.20
2022-11-29T10:15:55.817Z,83.14
2022-11-29T10:18:36.625Z,84.38
2022-11-29T10:21:12.832Z,85.79
2022-11-29T10:23:44.447Z,87.15
2022-11-29T10:26:12.948Z,89.78
2022-11-29T10:28:45.157Z,90.80
2022-11-29T10:31:32.205Z,91.63
2022-11-29T10:34:01.517Z,87.61
2022-11-29T10:36:33.552Z,87.29
2022-11-29T10:39:11.414Z,90.63
2022-11-29T10:41:41.137Z,92.87
2022-11-29T10:44:12.613Z,92.38
2022-11-29T10:46:39.532Z,89.50
2022-11-29T10:49:11.073Z,92.70
2022-11-29T10:51:39.121Z,90.28
2022-11-29T10:54:37.954Z,88.71
2022-11-29T10:57:09.860Z,86.89
2022-11-29T10:59:36.723Z,89.09
2022-11-29T11:02:04.635Z,87.54
2022-11-29T11:04:37.946Z,85.72
2022-11-29T11:07:05.276Z,84.20
2022-11-29T11:09:43.098Z,82.08
2022-11-29T11:12:17.349Z,84.88
2022-11-29T11:14:45.394Z,85.12
2022-11-29T11:17:26.455Z,84.75
2022-11-29T11:20:19.647Z,85.58
2022-11-29T11:22:59.381Z,84.80
2022-11-29T11:25:38.305Z,85.40
2022-11-29T11:28:24.365Z,83.32
2022-11-29T11:30:54.450Z,82.17
2022-11-29T11:33:34.225Z,81.44
2022-11-29T11:36:20.419Z,82.99
2022-11-29T11:38:53.493Z,85.87
2022-11-29T11:41:45.975Z,84.96
2022-11-29T11:44:46.866Z,85.98
2022-11-29T11:47:20.836Z,82.76
2022-11-29T11:49:50.722Z,81.22
2022-11-29T11:52:26.295Z,81.69
2022-11-29T11:55:01.070Z,76.66
2022-11-29T11:57:28.311Z,80.35
2022-11-29T12:00:02.040Z,81.57
2022-11-29T12:02:40.333Z,84.40
2022-11-29T12:05:14.260Z,85.71
2022-11-29T12:08:07.384Z,81.48
2022-11-29T12:10:35.071Z,82.69
2022-11-29T12:13:02.283Z,84.94
2022-11-29T12:15:33.427Z,84.10
2022-11-29T12:18:12.570Z,83.49
2022-11-29T12:21:02.001Z,81.52
2022-11-29T12:23:46.746Z,83.97
2022-11-29T12:26:57.535Z,82.06
2022-11-29T12:29:27.544Z,80.34
2022-11-29T12:32:25.444Z,84.26
2022-11-29T12:35:18.637Z,82.73
2022-11-29T12:37:54.998Z,86.21
2022-11-29T12:40:40.389Z,80.72
2022-11-29T12:43:45.843Z,84.72
2022-11-29T12:46:18.961Z,87.72
2022-11-29T12:49:12.189Z,87.60
2022-11-29T12:52:07.185Z,87.15
2022-11-29T12:54:43.427Z,84.71
2022-11-29T12:57:43.820Z,87.63
2022-11-29T13:00:17.048Z,85.55
2022-11-29T13:03:05.255Z,86.50
2022-11-29T13:05:38.189Z,85.07
2022-11-29T13:08:14.067Z,83.96
2022-11-29T13:10:58.624Z,85.92
2022-11-29T13:13:41.410Z,80.21
2022-11-29T13:16:40.512Z,83.04
2022-11-29T13:19:27.773Z,80.32
2022-11-29T13:22:20.916Z,80.29
2022-11-29T13:24:51.195Z,84.78
2022-11-29T13:27:23.775Z,82.35
2022-11-29T13:29:51.054Z,87.58
2022-11-29T13:32:35.888Z,88.53
2022-11-29T13:35:30.384Z,88.37
2022-11-29T13:38:21.629Z,89.49
2022-11-29T13:40:54.794Z,92.04
2022-11-29T13:43:45.756Z,92.40
2022-11-29T13:46:30.303Z,91.27
2022-11-29T13:48:57.375Z,89.76
2022-11-29T13:51:28.922Z,88.57
2022-11-29T13:53:57.002Z,89.31
2022-11-29T13:56:37.047Z,88.32
2022-11-29T13:59:09.400Z,89.37
2022-11-29T14:01:47.909Z,91.61
2022-11-29T14:04:39.320Z,90.17
2022-11-29T14:07:19.820Z,89.36
2022-11-29T14:09:59.534Z,87.20
2022-11-29T14:12:39.710Z,84.71
2022-11-29T14:15:27.797Z,82.89
2022-11-29T14:18:05.406Z,85.55
2022-11-29T14:20:32.639Z,86.44
2022-11-29T14:23:05.698Z,82.29
2022-11-29T14:25:55.470Z,79.33
2022-11-29T14:28:22.270Z,85.21
2022-11-29T14:30:52.621Z,81.72
2022-11-29T14:33:29.297Z,79.69
2022-11-29T14:36:19.364Z,77.97
2022-11-29T14:38:51.819Z,82.19
2022-11-29T14:41:46.212Z,80.36
2022-11-29T14:44:30.248Z,89.69
2022-11-29T14:47:07.232Z,87.25
2022-11-29T14:49:42.480Z,88.84
2022-11-29T14:52:15.659Z,84.13
2022-11-29T14:55:14.564Z,89.19
2022-11-29T14:57:47.491Z,88.97
2022-11-29T15:00:24.345Z,87.90
2022-11-29T15:02:55.634Z,85.36
2022-11-29T15:05:35.395Z,86.24
2022-11-29T15:08:15.310Z,84.32
2022-11-29T15:10:52.149Z,85.42
2022-11-29T15:13:29.575Z,87.22
2022-11-29T15:16:14.432Z,90.04
2022-11-29T15:19:22.761Z,92.70
2022-11-29T15:21:52.584Z,90.51
2022-11-29T15:24:20.566Z,90.01
2022-11-29T15:27:02.080Z,85.99
2022-11-29T15:29:30.872Z,82.65
2022-11-29T15:32:00.715Z,79.51
2022-11-29T15:34:53.490Z,83.80
2022-11-29T15:37:39.565Z,85.94
2022-11-29T15:40:34.523Z,83.22
2022-11-29T15:43:14.801Z,91.18
2022-11-29T15:45:47.399Z,91.54
2022-11-29T15:48:17.296Z,93.68
2022-11-29T15:50:49.825Z,93.42
2022-11-29T15:53:21.024Z,92.30
2022-11-29T15:55:49.769Z,91.43
2022-11-29T15:58:17.676Z,88.21
2022-11-29T16:00:49.788Z,87.96
2022-11-29T16:03:25.421Z,88.76
2022-11-29T16:06:00.631Z,89.15
2022-11-29T16:08:30.577Z,84.82
2022-11-29T16:10:58.026Z,89.06
2022-11-29T16:13:41.359Z,93.03
2022-11-29T16:16:21.692Z,93.21
2022-11-29T16:18:50.187Z,93.48
2022-11-29T16:21:30.115Z,94.90
2022-11-29T16:23:57.944Z,91.55
2022-11-29T16:26:29.067Z,92.77
2022-11-29T16:28:59.256Z,90.91
2022-11-29T16:31:35.706Z,89.98
2022-11-29T16:34:15.203Z,90.22
2022-11-29T16:36:42.110Z,86.22
2022-11-29T16:39:24.832Z,91.02
2022-11-29T16:42:24.694Z,88.32
2022-11-29T16:45:00.439Z,88.33
2022-11-29T16:47:29.652Z,89.53
2022-11-29T16:50:02.577Z,93.55
2022-11-29T16:52:34.055Z,94.71
2022-11-29T16:55:00.950Z,95.63
2022-11-29T16:57:29.091Z,95.04
2022-11-29T16:59:55.998Z,93.18
2022-11-29T17:02:22.987Z,93.95
2022-11-29T17:04:51.541Z,92.69
2022-11-29T17:07:32.381Z,93.79
2022-11-29T17:09:59.774Z,93.62
2022-11-29T17:12:26.668Z,93.63
2022-11-29T17:14:53.521Z,90.59
2022-11-29T17:17:20.187Z,93.88
2022-11-29T17:19:47.209Z,96.20
2022-11-29T17:22:14.255Z,98.66
2022-11-29T17:24:47.444Z,100.00
2022-11-29T17:27:15.123Z,100.00
2022-11-29T17:29:41.978Z,98.96
2022-11-29T17:32:08.704Z,95.45
2022-11-29T17:34:35.710Z,93.51
2022-11-29T17:37:02.752Z,90.63
2022-11-29T17:39:29.601Z,92.42
2022-11-29T17:41:56.270Z,90.75
2022-11-29T17:44:23.179Z,92.84
2022-11-29T17:46:50.031Z,94.40
2022-11-29T17:49:18.820Z,90.32
2022-11-29T17:51:53.761Z,95.06
2022-11-29T17:54:22.455Z,92.05
2022-11-29T17:56:49.755Z,87.49
2022-11-29T17:59:16.759Z,93.48
2022-11-29T18:01:43.718Z,92.87
2022-11-29T18:04:10.687Z,90.40
2022-11-29T18:06:40.079Z,91.83
2022-11-29T18:09:09.116Z,93.92
2022-11-29T18:11:47.081Z,94.79
2022-11-29T18:14:17.401Z,97.08
2022-11-29T18:16:45.725Z,96.77
2022-11-29T18:19:15.539Z,97.08
2022-11-29T18:21:42.849Z,95.45
2022-11-29T18:24:09.968Z,94.77
2022-11-29T18:26:37.339Z,95.58
2022-11-29T18:29:05.746Z,96.81
2022-11-29T18:31:34.906Z,99.09
2022-11-29T18:34:07.176Z,98.41
2022-11-29T18:36:36.453Z,97.10
2022-11-29T18:39:08.958Z,95.42
2022-11-29T18:41:36.552Z,96.45
2022-11-29T18:44:04.857Z,93.66
2022-11-29T18:46:36.778Z,94.78
2022-11-29T18:49:05.857Z,96.19
2022-11-29T18:51:33.426Z,99.74
2022-11-29T18:54:01.166Z,95.41
2022-11-29T18:56:30.126Z,94.91
2022-11-29T18:59:11.192Z,91.36
2022-11-29T19:01:43.106Z,86.38
2022-11-29T19:04:12.761Z,89.95
2022-11-29T19:06:40.380Z,87.42
2022-11-29T19:09:11.627Z,93.82
2022-11-29T19:11:38.834Z,91.23
2022-11-29T19:14:11.476Z,97.31
2022-11-29T19:16:44.275Z,92.45
2022-11-29T19:19:11.898Z,91.78
2022-11-29T19:21:40.200Z,88.46
2022-11-29T19:24:14.029Z,89.66
2022-11-29T19:26:41.880Z,88.19
2022-11-29T19:29:08.753Z,90.45
2022-11-29T19:31:35.466Z,90.35
2022-11-29T19:34:02.348Z,88.37
2022-11-29T19:36:31.014Z,88.96
2022-11-29T19:39:00.690Z,86.83
2022-11-29T19:41:32.269Z,88.01
2022-11-29T19:44:01.681Z,90.98
2022-11-29T19:46:30.931Z,90.32
2022-11-29T19:48:59.022Z,99.49
2022-11-29T19:51:26.835Z,96.12
2022-11-29T19:54:02.370Z,94.65
2022-11-29T19:56:30.193Z,96.50
2022-11-29T19:58:57.183Z,94.31
2022-11-29T20:01:28.202Z,92.67
2022-11-29T20:03:55.734Z,96.05
2022-11-29T20:06:23.933Z,93.69
2022-11-29T20:08:50.864Z,93.70
2022-11-29T20:11:18.491Z,92.87
2022-11-29T20:13:52.277Z,91.74
2022-11-29T20:16:19.587Z,95.44
2022-11-29T20:18:51.000Z,91.98
2022-11-29T20:21:24.671Z,88.14
2022-11-29T20:23:56.375Z,94.62
2022-11-29T20:26:23.921Z,91.63
2022-11-29T20:28:50.975Z,89.33
2022-11-29T20:31:21.562Z,88.26
2022-11-29T20:33:49.804Z,88.95
2022-11-29T20:36:43.446Z,88.94
2022-11-29T20:39:34.957Z,88.74
2022-11-29T20:42:32.473Z,89.72
2022-11-29T20:45:01.450Z,91.06
2022-11-29T20:47:33.702Z,92.26
2022-11-29T20:50:00.697Z,91.71
2022-11-29T20:52:42.671Z,92.84
2022-11-29T20:55:09.896Z,96.40
2022-11-29T20:57:38.503Z,94.25
2022-11-29T21:00:11.515Z,93.05
2022-11-29T21:02:38.906Z,93.52
2022-11-29T21:05:06.516Z,92.30
2022-11-29T21:07:33.473Z,92.92
2022-11-29T21:10:01.509Z,92.97
2022-11-29T21:12:29.895Z,96.65
2022-11-29T21:14:57.503Z,90.41
2022-11-29T21:17:28.793Z,97.48
2022-11-29T21:20:00.350Z,96.26
2022-11-29T21:22:39.236Z,100.00
2022-11-29T21:25:40.179Z,100.00
2022-11-29T21:28:12.384Z,100.00
2022-11-29T21:30:39.957Z,100.00
2022-11-29T21:33:07.274Z,100.00
2022-11-29T21:35:34.208Z,100.00
2022-11-29T21:38:02.147Z,100.00
2022-11-29T21:40:29.058Z,98.57
2022-11-29T21:42:56.239Z,99.59
2022-11-29T21:45:23.095Z,98.54
2022-11-29T21:47:49.789Z,100.00
2022-11-29T21:50:16.770Z,98.36
2022-11-29T21:52:44.580Z,100.00
2022-11-29T21:55:11.641Z,98.79
2022-11-29T21:57:39.074Z,95.45
2022-11-29T22:00:06.516Z,100.00
2022-11-29T22:02:33.474Z,100.00
2022-11-29T22:05:00.412Z,100.00
2022-11-29T22:07:27.168Z,100.00
2022-11-29T22:09:54.113Z,100.00
2022-11-29T22:12:33.861Z,100.00
2022-11-29T22:15:01.336Z,100.00
2022-11-29T22:17:28.019Z,100.00
2022-11-29T22:19:54.888Z,100.00
2022-11-29T22:22:21.738Z,100.00
2022-11-29T22:24:48.611Z,100.00
2022-11-29T22:27:18.570Z,100.00
2022-11-29T22:29:45.622Z,100.00
2022-11-29T22:32:12.464Z,100.00
2022-11-29T22:34:39.137Z,100.00
2022-11-29T22:37:06.119Z,100.00
2022-11-29T22:39:33.107Z,100.00
2022-11-29T22:41:59.951Z,100.00
2022-11-29T22:44:26.603Z,99.91
2022-11-29T22:46:53.539Z,98.26
2022-11-29T22:49:20.495Z,98.68
2022-11-29T22:51:47.368Z,96.06
2022-11-29T22:54:17.599Z,95.35
2022-11-29T22:56:45.511Z,95.56
2022-11-29T22:59:12.528Z,100.00
2022-11-29T23:01:40.693Z,95.10
2022-11-29T23:04:08.692Z,93.54
2022-11-29T23:06:41.503Z,93.28
2022-11-29T23:09:16.686Z,96.07
2022-11-29T23:11:45.561Z,98.88
2022-11-29T23:14:12.863Z,95.49
2022-11-29T23:16:39.818Z,94.69
2022-11-29T23:19:06.852Z,93.99
2022-11-29T23:21:35.800Z,93.12
2022-11-29T23:24:03.261Z,92.54
2022-11-29T23:26:34.116Z,86.00
2022-11-29T23:29:01.015Z,89.50
2022-11-29T23:31:27.988Z,91.54
2022-11-29T23:33:55.066Z,88.20
2022-11-29T23:36:21.972Z,87.98
2022-11-29T23:38:48.983Z,87.77
2022-11-29T23:41:16.071Z,87.39
2022-11-29T23:43:43.048Z,85.99
2022-11-29T23:46:15.392Z,85.75
2022-11-29T23:48:43.059Z,85.31
2022-11-29T23:51:10.757Z,84.66
2022-11-29T23:53:37.821Z,86.06
2022-11-29T23:56:07.567Z,85.53
2022-11-29T23:58:35.043Z,84.86
